APZ711 RKSI-ROAH
Flight info
| Callsign | APZ711 |
|---|---|
| Flight time | 1h 45m |
| Altitude | 34000 |
| Route | BOPTA2Y BOPTA Z51 BEDES Y711 KIDOS Z81 CJU Y572 RUGMA Y579 ONC Y525 IHEYA |
| Aircraft | B738/M-SDE2E3FGHIRWXY/LB1 |
Departure
| Time | 2026-04-16 05:31 |
|---|---|
| Airport | Incheon International Airport (RKSI) |
Arrival
| Time | 2026-04-16 07:17 |
|---|---|
| Airport | Naha International Airport (ROAH) |
| Time | Latitude | Longitude | Altitude | Speed | Heading |
|---|---|---|---|---|---|
| 2026-04-16 05:13 | 37.45096 | 126.44531 | 32 ft | 0 kts | 141° |
| 2026-04-16 05:18 | 37.45100 | 126.44527 | 32 ft | 4 kts | 141° |
| 2026-04-16 05:18 | 37.45120 | 126.44505 | 30 ft | 4 kts | 137° |
| 2026-04-16 05:18 | 37.45140 | 126.44482 | 30 ft | 4 kts | 141° |
| 2026-04-16 05:18 | 37.45162 | 126.44465 | 30 ft | 4 kts | 169° |
| 2026-04-16 05:19 | 37.45184 | 126.44470 | 31 ft | 4 kts | 227° |
| 2026-04-16 05:19 | 37.45196 | 126.44490 | 29 ft | 3 kts | 235° |
| 2026-04-16 05:19 | 37.45198 | 126.44494 | 30 ft | 0 kts | 234° |
| 2026-04-16 05:22 | 37.45193 | 126.44486 | 30 ft | 5 kts | 234° |
| 2026-04-16 05:22 | 37.45152 | 126.44413 | 32 ft | 15 kts | 234° |
| 2026-04-16 05:23 | 37.45079 | 126.44282 | 32 ft | 19 kts | 235° |
| 2026-04-16 05:23 | 37.45004 | 126.44148 | 32 ft | 18 kts | 235° |
| 2026-04-16 05:23 | 37.44994 | 126.44013 | 32 ft | 18 kts | 322° |
| 2026-04-16 05:23 | 37.45093 | 126.43926 | 32 ft | 17 kts | 324° |
| 2026-04-16 05:24 | 37.45187 | 126.43841 | 30 ft | 16 kts | 324° |
| 2026-04-16 05:24 | 37.45285 | 126.43755 | 30 ft | 18 kts | 324° |
| 2026-04-16 05:24 | 37.45386 | 126.43664 | 30 ft | 17 kts | 324° |
| 2026-04-16 05:24 | 37.45483 | 126.43577 | 32 ft | 17 kts | 324° |
| 2026-04-16 05:25 | 37.45577 | 126.43493 | 31 ft | 16 kts | 324° |
| 2026-04-16 05:25 | 37.45668 | 126.43412 | 31 ft | 16 kts | 325° |
| 2026-04-16 05:25 | 37.45757 | 126.43334 | 32 ft | 18 kts | 325° |
| 2026-04-16 05:25 | 37.45871 | 126.43233 | 32 ft | 20 kts | 324° |
| 2026-04-16 05:26 | 37.45985 | 126.43131 | 31 ft | 20 kts | 324° |
| 2026-04-16 05:26 | 37.46096 | 126.43032 | 31 ft | 19 kts | 324° |
| 2026-04-16 05:26 | 37.46203 | 126.42937 | 32 ft | 19 kts | 325° |
| 2026-04-16 05:26 | 37.46306 | 126.42844 | 32 ft | 18 kts | 324° |
| 2026-04-16 05:27 | 37.46406 | 126.42755 | 32 ft | 17 kts | 325° |
| 2026-04-16 05:27 | 37.46503 | 126.42670 | 31 ft | 17 kts | 324° |
| 2026-04-16 05:27 | 37.46599 | 126.42584 | 31 ft | 19 kts | 325° |
| 2026-04-16 05:27 | 37.46710 | 126.42485 | 30 ft | 19 kts | 324° |
| 2026-04-16 05:28 | 37.46818 | 126.42389 | 31 ft | 19 kts | 325° |
| 2026-04-16 05:28 | 37.46922 | 126.42295 | 32 ft | 18 kts | 324° |
| 2026-04-16 05:28 | 37.47022 | 126.42204 | 32 ft | 17 kts | 324° |
| 2026-04-16 05:28 | 37.47119 | 126.42118 | 31 ft | 17 kts | 325° |
| 2026-04-16 05:29 | 37.47213 | 126.42037 | 32 ft | 16 kts | 325° |
| 2026-04-16 05:29 | 37.47303 | 126.41957 | 31 ft | 16 kts | 324° |
| 2026-04-16 05:29 | 37.47389 | 126.41879 | 30 ft | 15 kts | 317° |
| 2026-04-16 05:29 | 37.47378 | 126.41765 | 32 ft | 14 kts | 235° |
| 2026-04-16 05:30 | 37.47322 | 126.41665 | 32 ft | 14 kts | 234° |
| 2026-04-16 05:30 | 37.47259 | 126.41584 | 31 ft | 13 kts | 180° |
| 2026-04-16 05:30 | 37.47183 | 126.41644 | 32 ft | 13 kts | 144° |
| 2026-04-16 05:30 | 37.46990 | 126.41817 | 32 ft | 72 kts | 145° |
| 2026-04-16 05:31 | 37.46362 | 126.42377 | 32 ft | 147 kts | 144° |
| 2026-04-16 05:31 | 37.45349 | 126.43194 | 317 ft | 187 kts | 151° |
| 2026-04-16 05:31 | 37.44251 | 126.44147 | 1121 ft | 198 kts | 146° |
| 2026-04-16 05:31 | 37.43105 | 126.45098 | 2152 ft | 196 kts | 150° |
| 2026-04-16 05:32 | 37.41878 | 126.45997 | 2636 ft | 214 kts | 150° |
| 2026-04-16 05:32 | 37.41002 | 126.46643 | 2846 ft | 225 kts | 149° |
| 2026-04-16 05:32 | 37.40546 | 126.46979 | 3018 ft | 227 kts | 149° |
| 2026-04-16 05:32 | 37.39156 | 126.48008 | 3500 ft | 241 kts | 150° |
| 2026-04-16 05:33 | 37.37564 | 126.48870 | 4010 ft | 255 kts | 163° |
| 2026-04-16 05:33 | 37.35827 | 126.49451 | 4807 ft | 260 kts | 165° |
| 2026-04-16 05:33 | 37.34043 | 126.49908 | 5632 ft | 263 kts | 169° |
| 2026-04-16 05:33 | 37.32250 | 126.50257 | 6461 ft | 265 kts | 170° |
| 2026-04-16 05:34 | 37.30414 | 126.50595 | 7295 ft | 266 kts | 171° |
| 2026-04-16 05:34 | 37.28576 | 126.50933 | 8115 ft | 267 kts | 171° |
| 2026-04-16 05:34 | 37.26728 | 126.51278 | 8968 ft | 268 kts | 171° |
| 2026-04-16 05:34 | 37.24903 | 126.51623 | 9788 ft | 270 kts | 171° |
| 2026-04-16 05:35 | 37.23029 | 126.51981 | 10443 ft | 278 kts | 171° |
| 2026-04-16 05:35 | 37.21027 | 126.52366 | 10609 ft | 302 kts | 171° |
| 2026-04-16 05:35 | 37.18870 | 126.52783 | 10780 ft | 325 kts | 171° |
| 2026-04-16 05:35 | 37.16560 | 126.53232 | 10936 ft | 346 kts | 171° |
| 2026-04-16 05:36 | 37.14109 | 126.53709 | 11193 ft | 362 kts | 171° |
| 2026-04-16 05:36 | 37.11587 | 126.54200 | 11702 ft | 369 kts | 171° |
| 2026-04-16 05:36 | 37.09067 | 126.54692 | 12300 ft | 373 kts | 171° |
| 2026-04-16 05:36 | 37.06484 | 126.55195 | 12900 ft | 378 kts | 171° |
| 2026-04-16 05:37 | 37.03871 | 126.55704 | 13466 ft | 383 kts | 171° |
| 2026-04-16 05:37 | 37.01217 | 126.56221 | 14029 ft | 388 kts | 171° |
| 2026-04-16 05:37 | 36.98540 | 126.56742 | 14595 ft | 391 kts | 172° |
| 2026-04-16 05:37 | 36.95840 | 126.57267 | 15186 ft | 393 kts | 172° |
| 2026-04-16 05:38 | 36.93125 | 126.57794 | 15750 ft | 397 kts | 172° |
| 2026-04-16 05:38 | 36.90388 | 126.58324 | 16320 ft | 400 kts | 172° |
| 2026-04-16 05:38 | 36.87628 | 126.58858 | 16858 ft | 403 kts | 172° |
| 2026-04-16 05:38 | 36.84832 | 126.59403 | 17393 ft | 407 kts | 173° |
| 2026-04-16 05:39 | 36.82060 | 126.59942 | 17932 ft | 409 kts | 173° |
| 2026-04-16 05:39 | 36.79234 | 126.60490 | 18429 ft | 413 kts | 173° |
| 2026-04-16 05:39 | 36.76378 | 126.61042 | 18865 ft | 416 kts | 173° |
| 2026-04-16 05:39 | 36.73514 | 126.61606 | 19328 ft | 418 kts | 172° |
| 2026-04-16 05:40 | 36.70662 | 126.62405 | 19746 ft | 422 kts | 168° |
| 2026-04-16 05:40 | 36.67809 | 126.63367 | 20164 ft | 426 kts | 167° |
| 2026-04-16 05:40 | 36.64950 | 126.64376 | 20571 ft | 429 kts | 167° |
| 2026-04-16 05:40 | 36.62066 | 126.65393 | 21038 ft | 431 kts | 168° |
| 2026-04-16 05:41 | 36.59167 | 126.66398 | 21463 ft | 433 kts | 168° |
| 2026-04-16 05:41 | 36.56247 | 126.67392 | 21844 ft | 436 kts | 169° |
| 2026-04-16 05:41 | 36.53308 | 126.68381 | 22217 ft | 439 kts | 169° |
| 2026-04-16 05:41 | 36.50348 | 126.69372 | 22561 ft | 442 kts | 169° |
| 2026-04-16 05:42 | 36.47363 | 126.70369 | 22938 ft | 445 kts | 169° |
| 2026-04-16 05:42 | 36.44439 | 126.71347 | 23319 ft | 447 kts | 169° |
| 2026-04-16 05:42 | 36.41427 | 126.72354 | 23664 ft | 450 kts | 169° |
| 2026-04-16 05:42 | 36.38389 | 126.73367 | 23912 ft | 453 kts | 169° |
| 2026-04-16 05:43 | 36.35330 | 126.74393 | 24170 ft | 456 kts | 170° |
| 2026-04-16 05:43 | 36.32298 | 126.75414 | 24440 ft | 459 kts | 169° |
| 2026-04-16 05:43 | 36.29202 | 126.76458 | 24700 ft | 462 kts | 170° |
| 2026-04-16 05:43 | 36.26094 | 126.77505 | 24945 ft | 464 kts | 170° |
| 2026-04-16 05:44 | 36.22963 | 126.78559 | 25193 ft | 467 kts | 170° |
| 2026-04-16 05:44 | 36.19813 | 126.79617 | 25441 ft | 470 kts | 170° |
| 2026-04-16 05:44 | 36.16631 | 126.80578 | 25683 ft | 469 kts | 175° |
| 2026-04-16 05:44 | 36.13401 | 126.81008 | 25932 ft | 465 kts | 184° |
| 2026-04-16 05:45 | 36.10194 | 126.80819 | 26184 ft | 461 kts | 191° |
| 2026-04-16 05:45 | 36.06996 | 126.80417 | 26420 ft | 463 kts | 191° |
| 2026-04-16 05:45 | 36.03775 | 126.80007 | 26657 ft | 465 kts | 191° |
| 2026-04-16 05:45 | 36.00584 | 126.79622 | 26865 ft | 468 kts | 191° |
| 2026-04-16 05:46 | 35.97333 | 126.79256 | 27085 ft | 470 kts | 191° |
| 2026-04-16 05:46 | 35.94023 | 126.78898 | 27343 ft | 472 kts | 191° |
| 2026-04-16 05:46 | 35.90803 | 126.78553 | 27668 ft | 471 kts | 191° |
| 2026-04-16 05:46 | 35.87536 | 126.78202 | 28022 ft | 470 kts | 191° |
| 2026-04-16 05:47 | 35.84275 | 126.77851 | 28345 ft | 470 kts | 191° |
| 2026-04-16 05:47 | 35.81009 | 126.77499 | 28645 ft | 470 kts | 191° |
| 2026-04-16 05:47 | 35.77754 | 126.77148 | 28977 ft | 470 kts | 191° |
| 2026-04-16 05:47 | 35.74497 | 126.76797 | 29331 ft | 469 kts | 192° |
| 2026-04-16 05:48 | 35.71241 | 126.76447 | 29673 ft | 469 kts | 192° |
| 2026-04-16 05:48 | 35.67986 | 126.76097 | 30000 ft | 469 kts | 192° |
| 2026-04-16 05:48 | 35.64781 | 126.75752 | 30306 ft | 469 kts | 192° |
| 2026-04-16 05:48 | 35.61527 | 126.75403 | 30583 ft | 469 kts | 192° |
| 2026-04-16 05:49 | 35.58268 | 126.75053 | 30814 ft | 470 kts | 192° |
| 2026-04-16 05:49 | 35.55008 | 126.74703 | 31045 ft | 470 kts | 192° |
| 2026-04-16 05:49 | 35.51746 | 126.74354 | 31302 ft | 471 kts | 192° |
| 2026-04-16 05:49 | 35.48477 | 126.74006 | 31572 ft | 471 kts | 193° |
| 2026-04-16 05:50 | 35.45207 | 126.73658 | 31822 ft | 472 kts | 193° |
| 2026-04-16 05:50 | 35.41931 | 126.73310 | 32076 ft | 472 kts | 193° |
| 2026-04-16 05:50 | 35.38695 | 126.72968 | 32349 ft | 472 kts | 193° |
| 2026-04-16 05:50 | 35.35428 | 126.72622 | 32608 ft | 471 kts | 193° |
| 2026-04-16 05:51 | 35.32157 | 126.72275 | 32803 ft | 472 kts | 193° |
| 2026-04-16 05:51 | 35.28877 | 126.71927 | 33012 ft | 473 kts | 193° |
| 2026-04-16 05:51 | 35.25586 | 126.71580 | 33242 ft | 474 kts | 194° |
| 2026-04-16 05:51 | 35.22293 | 126.71232 | 33490 ft | 474 kts | 194° |
| 2026-04-16 05:52 | 35.19005 | 126.70886 | 33782 ft | 473 kts | 194° |
| 2026-04-16 05:52 | 35.15728 | 126.70541 | 34029 ft | 473 kts | 194° |
| 2026-04-16 05:52 | 35.12439 | 126.70193 | 34078 ft | 476 kts | 194° |
| 2026-04-16 05:53 | 35.05903 | 126.69500 | 34086 ft | 476 kts | 194° |
| 2026-04-16 05:53 | 34.99405 | 126.68816 | 34089 ft | 473 kts | 194° |
| 2026-04-16 05:54 | 34.92864 | 126.68127 | 34092 ft | 471 kts | 194° |
| 2026-04-16 05:54 | 34.86343 | 126.67439 | 34091 ft | 470 kts | 194° |
| 2026-04-16 05:55 | 34.79828 | 126.66751 | 34096 ft | 470 kts | 194° |
| 2026-04-16 05:55 | 34.73300 | 126.66064 | 34096 ft | 471 kts | 195° |
| 2026-04-16 05:56 | 34.66751 | 126.65375 | 34091 ft | 472 kts | 195° |
| 2026-04-16 05:56 | 34.60222 | 126.64692 | 34096 ft | 473 kts | 195° |
| 2026-04-16 05:57 | 34.54759 | 126.64121 | 34103 ft | 474 kts | 195° |
| 2026-04-16 05:57 | 34.48169 | 126.63433 | 34103 ft | 475 kts | 195° |
| 2026-04-16 05:58 | 34.40459 | 126.62627 | 34101 ft | 475 kts | 195° |
| 2026-04-16 05:58 | 34.34988 | 126.62037 | 34098 ft | 474 kts | 195° |
| 2026-04-16 05:59 | 34.28422 | 126.61326 | 34100 ft | 472 kts | 195° |
| 2026-04-16 05:59 | 34.21886 | 126.60629 | 34103 ft | 471 kts | 195° |
| 2026-04-16 06:00 | 34.15371 | 126.59951 | 34105 ft | 469 kts | 195° |
| 2026-04-16 06:00 | 34.08922 | 126.59282 | 34103 ft | 467 kts | 195° |
| 2026-04-16 06:01 | 34.02444 | 126.58607 | 34103 ft | 465 kts | 195° |
| 2026-04-16 06:01 | 33.96001 | 126.57936 | 34103 ft | 464 kts | 196° |
| 2026-04-16 06:02 | 33.86352 | 126.56934 | 34101 ft | 463 kts | 195° |
| 2026-04-16 06:02 | 33.79848 | 126.57070 | 34106 ft | 479 kts | 184° |
| 2026-04-16 06:03 | 33.73208 | 126.57984 | 34095 ft | 480 kts | 184° |
| 2026-04-16 06:03 | 33.66565 | 126.58891 | 34105 ft | 480 kts | 184° |
| 2026-04-16 06:04 | 33.59898 | 126.59738 | 34101 ft | 481 kts | 184° |
| 2026-04-16 06:04 | 33.53282 | 126.60559 | 34098 ft | 481 kts | 184° |
| 2026-04-16 06:05 | 33.46613 | 126.61389 | 34103 ft | 482 kts | 184° |
| 2026-04-16 06:05 | 33.39923 | 126.62231 | 34093 ft | 484 kts | 182° |
| 2026-04-16 06:06 | 33.36572 | 126.62996 | 34087 ft | 497 kts | 173° |
| 2026-04-16 06:06 | 33.33264 | 126.64255 | 34103 ft | 501 kts | 170° |
| 2026-04-16 06:06 | 33.26660 | 126.66972 | 34080 ft | 500 kts | 171° |
| 2026-04-16 06:07 | 33.20097 | 126.69526 | 34069 ft | 498 kts | 171° |
| 2026-04-16 06:07 | 33.13495 | 126.72079 | 34068 ft | 498 kts | 171° |
| 2026-04-16 06:08 | 33.06903 | 126.74640 | 34069 ft | 497 kts | 171° |
| 2026-04-16 06:08 | 33.00328 | 126.77189 | 34065 ft | 496 kts | 171° |
| 2026-04-16 06:09 | 32.93814 | 126.79713 | 34067 ft | 495 kts | 171° |
| 2026-04-16 06:09 | 32.87258 | 126.82252 | 34061 ft | 495 kts | 171° |
| 2026-04-16 06:10 | 32.80694 | 126.84791 | 34064 ft | 495 kts | 171° |
| 2026-04-16 06:10 | 32.74123 | 126.87328 | 34060 ft | 496 kts | 171° |
| 2026-04-16 06:11 | 32.67548 | 126.89864 | 34056 ft | 496 kts | 171° |
| 2026-04-16 06:11 | 32.61012 | 126.92381 | 34053 ft | 497 kts | 171° |
| 2026-04-16 06:12 | 32.54416 | 126.94918 | 34047 ft | 498 kts | 171° |
| 2026-04-16 06:12 | 32.47807 | 126.97418 | 34045 ft | 497 kts | 173° |
| 2026-04-16 06:13 | 32.41156 | 126.99631 | 34043 ft | 495 kts | 174° |
| 2026-04-16 06:13 | 32.34534 | 127.01802 | 34039 ft | 497 kts | 173° |
| 2026-04-16 06:14 | 32.27871 | 127.04039 | 34042 ft | 498 kts | 173° |
| 2026-04-16 06:14 | 32.21199 | 127.06286 | 34039 ft | 498 kts | 173° |
| 2026-04-16 06:15 | 32.14529 | 127.08530 | 34034 ft | 499 kts | 173° |
| 2026-04-16 06:15 | 32.07851 | 127.10774 | 34030 ft | 499 kts | 173° |
| 2026-04-16 06:16 | 32.01207 | 127.12999 | 34029 ft | 499 kts | 173° |
| 2026-04-16 06:16 | 31.94506 | 127.15231 | 34024 ft | 499 kts | 174° |
| 2026-04-16 06:17 | 31.87859 | 127.17440 | 34023 ft | 499 kts | 174° |
| 2026-04-16 06:17 | 31.81175 | 127.19661 | 34022 ft | 498 kts | 174° |
| 2026-04-16 06:18 | 31.74495 | 127.21877 | 34019 ft | 498 kts | 174° |
| 2026-04-16 06:18 | 31.67858 | 127.24076 | 34019 ft | 498 kts | 174° |
| 2026-04-16 06:19 | 31.61187 | 127.26283 | 34017 ft | 497 kts | 174° |
| 2026-04-16 06:19 | 31.54510 | 127.28488 | 34012 ft | 497 kts | 174° |
| 2026-04-16 06:20 | 31.47837 | 127.30689 | 34013 ft | 497 kts | 174° |
| 2026-04-16 06:20 | 31.41173 | 127.32883 | 34010 ft | 497 kts | 174° |
| 2026-04-16 06:21 | 31.34539 | 127.35065 | 34009 ft | 498 kts | 174° |
| 2026-04-16 06:21 | 31.27866 | 127.37257 | 34010 ft | 498 kts | 174° |
| 2026-04-16 06:22 | 31.21179 | 127.39461 | 34004 ft | 499 kts | 174° |
| 2026-04-16 06:22 | 31.14497 | 127.41689 | 34007 ft | 500 kts | 174° |
| 2026-04-16 06:23 | 31.07803 | 127.43923 | 34005 ft | 500 kts | 173° |
| 2026-04-16 06:23 | 31.01143 | 127.46139 | 33998 ft | 501 kts | 173° |
| 2026-04-16 06:24 | 30.94437 | 127.48365 | 34000 ft | 501 kts | 173° |
| 2026-04-16 06:24 | 30.87725 | 127.50589 | 34003 ft | 501 kts | 173° |
| 2026-04-16 06:25 | 30.81008 | 127.52812 | 34006 ft | 501 kts | 173° |
| 2026-04-16 06:25 | 30.74295 | 127.55030 | 33985 ft | 501 kts | 173° |
| 2026-04-16 06:26 | 30.67616 | 127.57234 | 33988 ft | 501 kts | 173° |
| 2026-04-16 06:26 | 30.60908 | 127.59444 | 33989 ft | 500 kts | 173° |
| 2026-04-16 06:27 | 30.54212 | 127.61648 | 33984 ft | 499 kts | 173° |
| 2026-04-16 06:27 | 30.47575 | 127.63828 | 33987 ft | 498 kts | 173° |
| 2026-04-16 06:28 | 30.40903 | 127.66017 | 33988 ft | 498 kts | 173° |
| 2026-04-16 06:28 | 30.34238 | 127.68200 | 33981 ft | 497 kts | 173° |
| 2026-04-16 06:29 | 30.27570 | 127.70382 | 33980 ft | 496 kts | 173° |
| 2026-04-16 06:29 | 30.20934 | 127.72544 | 33975 ft | 495 kts | 173° |
| 2026-04-16 06:30 | 30.14302 | 127.74697 | 33971 ft | 494 kts | 173° |
| 2026-04-16 06:30 | 30.07726 | 127.76830 | 33971 ft | 494 kts | 173° |
| 2026-04-16 06:31 | 30.01114 | 127.78973 | 33964 ft | 493 kts | 172° |
| 2026-04-16 06:31 | 29.94514 | 127.81109 | 33965 ft | 492 kts | 172° |
| 2026-04-16 06:32 | 29.87926 | 127.83239 | 33957 ft | 491 kts | 172° |
| 2026-04-16 06:32 | 29.81366 | 127.85531 | 33960 ft | 494 kts | 169° |
| 2026-04-16 06:33 | 29.74844 | 127.88092 | 33949 ft | 494 kts | 169° |
| 2026-04-16 06:33 | 29.68378 | 127.90607 | 33957 ft | 493 kts | 169° |
| 2026-04-16 06:34 | 29.61864 | 127.93087 | 33955 ft | 492 kts | 170° |
| 2026-04-16 06:34 | 29.55361 | 127.95551 | 33961 ft | 491 kts | 170° |
| 2026-04-16 06:35 | 29.48859 | 127.98013 | 33958 ft | 491 kts | 170° |
| 2026-04-16 06:35 | 29.42365 | 128.00460 | 33960 ft | 491 kts | 170° |
| 2026-04-16 06:36 | 29.35907 | 128.02891 | 33957 ft | 492 kts | 170° |
| 2026-04-16 06:36 | 29.29397 | 128.05339 | 33959 ft | 492 kts | 170° |
| 2026-04-16 06:37 | 29.22881 | 128.07787 | 33956 ft | 492 kts | 170° |
| 2026-04-16 06:37 | 29.16406 | 128.10216 | 33959 ft | 492 kts | 170° |
| 2026-04-16 06:38 | 29.09884 | 128.12661 | 33956 ft | 493 kts | 170° |
| 2026-04-16 06:38 | 29.03360 | 128.15103 | 33957 ft | 493 kts | 170° |
| 2026-04-16 06:39 | 28.96819 | 128.17457 | 33955 ft | 491 kts | 171° |
| 2026-04-16 06:39 | 28.90273 | 128.19696 | 33951 ft | 491 kts | 171° |
| 2026-04-16 06:40 | 28.83763 | 128.21922 | 33954 ft | 491 kts | 171° |
| 2026-04-16 06:40 | 28.77216 | 128.24178 | 33953 ft | 491 kts | 171° |
| 2026-04-16 06:41 | 28.70668 | 128.26439 | 33948 ft | 490 kts | 171° |
| 2026-04-16 06:41 | 28.64141 | 128.28691 | 33948 ft | 490 kts | 171° |
| 2026-04-16 06:42 | 28.57639 | 128.30929 | 33946 ft | 490 kts | 171° |
| 2026-04-16 06:42 | 28.51111 | 128.33173 | 33945 ft | 489 kts | 171° |
| 2026-04-16 06:43 | 28.44587 | 128.35413 | 33949 ft | 489 kts | 171° |
| 2026-04-16 06:43 | 28.38115 | 128.37633 | 33947 ft | 489 kts | 171° |
| 2026-04-16 06:44 | 28.31594 | 128.39866 | 33944 ft | 488 kts | 171° |
| 2026-04-16 06:44 | 28.26183 | 128.41718 | 33946 ft | 488 kts | 171° |
| 2026-04-16 06:45 | 28.18618 | 128.44303 | 33946 ft | 488 kts | 170° |
| 2026-04-16 06:45 | 28.12120 | 128.46540 | 33948 ft | 488 kts | 170° |
| 2026-04-16 06:46 | 28.05627 | 128.48780 | 33944 ft | 488 kts | 170° |
| 2026-04-16 06:46 | 28.00215 | 128.50643 | 33945 ft | 488 kts | 170° |
| 2026-04-16 06:47 | 27.93712 | 128.52877 | 33943 ft | 488 kts | 170° |
| 2026-04-16 06:47 | 27.87203 | 128.55097 | 33942 ft | 488 kts | 170° |
| 2026-04-16 06:48 | 27.80675 | 128.57302 | 33939 ft | 489 kts | 170° |
| 2026-04-16 06:48 | 27.74194 | 128.59489 | 33949 ft | 489 kts | 170° |
| 2026-04-16 06:49 | 27.67661 | 128.61695 | 33939 ft | 490 kts | 170° |
| 2026-04-16 06:49 | 27.61126 | 128.63900 | 33944 ft | 490 kts | 170° |
| 2026-04-16 06:50 | 27.54587 | 128.66104 | 33939 ft | 490 kts | 170° |
| 2026-04-16 06:50 | 27.48011 | 128.67297 | 33949 ft | 466 kts | 194° |
| 2026-04-16 06:51 | 27.44913 | 128.66454 | 33938 ft | 451 kts | 209° |
| 2026-04-16 06:51 | 27.42184 | 128.64833 | 33952 ft | 439 kts | 220° |
| 2026-04-16 06:51 | 27.39860 | 128.62717 | 33936 ft | 432 kts | 231° |
| 2026-04-16 06:51 | 27.38017 | 128.60093 | 33951 ft | 424 kts | 242° |
| 2026-04-16 06:52 | 27.35013 | 128.54381 | 33936 ft | 425 kts | 244° |
| 2026-04-16 06:52 | 27.32078 | 128.48634 | 33582 ft | 417 kts | 244° |
| 2026-04-16 06:53 | 27.30619 | 128.45821 | 32930 ft | 416 kts | 244° |
| 2026-04-16 06:53 | 27.29153 | 128.43016 | 32270 ft | 417 kts | 243° |
| 2026-04-16 06:53 | 27.27678 | 128.40212 | 31698 ft | 415 kts | 243° |
| 2026-04-16 06:53 | 27.26223 | 128.37457 | 31236 ft | 411 kts | 243° |
| 2026-04-16 06:54 | 27.24766 | 128.34702 | 30789 ft | 407 kts | 243° |
| 2026-04-16 06:54 | 27.23323 | 128.31976 | 30337 ft | 404 kts | 243° |
| 2026-04-16 06:54 | 27.21892 | 128.29272 | 29848 ft | 401 kts | 243° |
| 2026-04-16 06:54 | 27.20470 | 128.26587 | 29302 ft | 398 kts | 243° |
| 2026-04-16 06:55 | 27.19056 | 128.23918 | 28759 ft | 395 kts | 243° |
| 2026-04-16 06:55 | 27.17657 | 128.21277 | 28231 ft | 392 kts | 243° |
| 2026-04-16 06:55 | 27.16265 | 128.18652 | 27706 ft | 390 kts | 243° |
| 2026-04-16 06:55 | 27.14883 | 128.16045 | 27198 ft | 387 kts | 243° |
| 2026-04-16 06:56 | 27.13503 | 128.13445 | 26703 ft | 384 kts | 243° |
| 2026-04-16 06:56 | 27.12155 | 128.10910 | 26237 ft | 382 kts | 243° |
| 2026-04-16 06:56 | 27.10793 | 128.08358 | 25750 ft | 380 kts | 243° |
| 2026-04-16 06:56 | 27.09434 | 128.05824 | 25277 ft | 378 kts | 243° |
| 2026-04-16 06:57 | 27.08082 | 128.03306 | 24821 ft | 375 kts | 243° |
| 2026-04-16 06:57 | 27.06738 | 128.00801 | 24374 ft | 373 kts | 243° |
| 2026-04-16 06:57 | 27.05402 | 127.98312 | 23942 ft | 371 kts | 243° |
| 2026-04-16 06:57 | 27.04074 | 127.95839 | 23521 ft | 369 kts | 243° |
| 2026-04-16 06:58 | 27.02566 | 127.93503 | 22975 ft | 374 kts | 229° |
| 2026-04-16 06:58 | 27.00456 | 127.91750 | 22452 ft | 383 kts | 213° |
| 2026-04-16 06:58 | 26.97964 | 127.90643 | 21979 ft | 389 kts | 199° |
| 2026-04-16 06:58 | 26.95276 | 127.90344 | 21517 ft | 396 kts | 186° |
| 2026-04-16 06:59 | 26.92527 | 127.90390 | 21092 ft | 395 kts | 183° |
| 2026-04-16 06:59 | 26.89786 | 127.90505 | 20653 ft | 393 kts | 182° |
| 2026-04-16 06:59 | 26.87058 | 127.90633 | 20216 ft | 390 kts | 182° |
| 2026-04-16 06:59 | 26.84348 | 127.90751 | 19793 ft | 388 kts | 182° |
| 2026-04-16 07:00 | 26.81661 | 127.90855 | 19388 ft | 385 kts | 182° |
| 2026-04-16 07:00 | 26.78992 | 127.90946 | 18983 ft | 383 kts | 182° |
| 2026-04-16 07:00 | 26.76338 | 127.91030 | 18585 ft | 380 kts | 182° |
| 2026-04-16 07:01 | 26.71077 | 127.91186 | 17738 ft | 375 kts | 182° |
| 2026-04-16 07:01 | 26.68502 | 127.91261 | 17319 ft | 373 kts | 182° |
| 2026-04-16 07:01 | 26.65911 | 127.91337 | 16906 ft | 370 kts | 182° |
| 2026-04-16 07:01 | 26.63346 | 127.91411 | 16494 ft | 368 kts | 182° |
| 2026-04-16 07:02 | 26.60791 | 127.91485 | 16079 ft | 366 kts | 182° |
| 2026-04-16 07:02 | 26.58257 | 127.91559 | 15674 ft | 363 kts | 182° |
| 2026-04-16 07:02 | 26.55736 | 127.91632 | 15278 ft | 361 kts | 182° |
| 2026-04-16 07:02 | 26.53224 | 127.91705 | 14875 ft | 359 kts | 182° |
| 2026-04-16 07:03 | 26.50737 | 127.91778 | 14491 ft | 357 kts | 181° |
| 2026-04-16 07:03 | 26.48288 | 127.91849 | 14117 ft | 355 kts | 181° |
| 2026-04-16 07:03 | 26.45824 | 127.91920 | 13751 ft | 353 kts | 181° |
| 2026-04-16 07:03 | 26.43372 | 127.91992 | 13339 ft | 351 kts | 181° |
| 2026-04-16 07:04 | 26.40936 | 127.92062 | 12906 ft | 349 kts | 182° |
| 2026-04-16 07:04 | 26.38551 | 127.91749 | 12449 ft | 342 kts | 201° |
| 2026-04-16 07:04 | 26.36366 | 127.90734 | 12066 ft | 337 kts | 207° |
| 2026-04-16 07:04 | 26.34243 | 127.89633 | 11667 ft | 336 kts | 208° |
| 2026-04-16 07:05 | 26.32132 | 127.88523 | 11269 ft | 335 kts | 208° |
| 2026-04-16 07:05 | 26.30040 | 127.87429 | 11112 ft | 325 kts | 208° |
| 2026-04-16 07:05 | 26.28047 | 127.86396 | 11042 ft | 314 kts | 208° |
| 2026-04-16 07:05 | 26.26101 | 127.85395 | 10961 ft | 301 kts | 208° |
| 2026-04-16 07:06 | 26.24248 | 127.84446 | 10810 ft | 287 kts | 208° |
| 2026-04-16 07:06 | 26.22447 | 127.83524 | 10408 ft | 284 kts | 208° |
| 2026-04-16 07:06 | 26.20648 | 127.82602 | 9961 ft | 283 kts | 207° |
| 2026-04-16 07:06 | 26.18853 | 127.81685 | 9487 ft | 283 kts | 207° |
| 2026-04-16 07:07 | 26.17071 | 127.80774 | 9051 ft | 281 kts | 207° |
| 2026-04-16 07:07 | 26.15324 | 127.79884 | 8668 ft | 278 kts | 207° |
| 2026-04-16 07:07 | 26.13570 | 127.78989 | 8189 ft | 277 kts | 207° |
| 2026-04-16 07:07 | 26.11821 | 127.78098 | 7738 ft | 275 kts | 207° |
| 2026-04-16 07:08 | 26.10085 | 127.77215 | 7324 ft | 273 kts | 207° |
| 2026-04-16 07:08 | 26.08364 | 127.76340 | 6919 ft | 271 kts | 207° |
| 2026-04-16 07:08 | 26.06680 | 127.75419 | 6516 ft | 267 kts | 217° |
| 2026-04-16 07:08 | 26.05470 | 127.73916 | 6058 ft | 260 kts | 245° |
| 2026-04-16 07:09 | 26.04972 | 127.72010 | 5607 ft | 256 kts | 266° |
| 2026-04-16 07:09 | 26.04886 | 127.70042 | 5196 ft | 254 kts | 269° |
| 2026-04-16 07:09 | 26.04517 | 127.68124 | 4804 ft | 258 kts | 243° |
| 2026-04-16 07:09 | 26.03333 | 127.66650 | 4596 ft | 258 kts | 213° |
| 2026-04-16 07:10 | 26.01685 | 127.66044 | 4525 ft | 251 kts | 185° |
| 2026-04-16 07:10 | 25.99961 | 127.66066 | 4471 ft | 243 kts | 175° |
| 2026-04-16 07:10 | 25.98401 | 127.66674 | 4342 ft | 238 kts | 144° |
| 2026-04-16 07:10 | 25.97381 | 127.68065 | 4126 ft | 232 kts | 111° |
| 2026-04-16 07:11 | 25.97179 | 127.69813 | 3743 ft | 231 kts | 77° |
| 2026-04-16 07:11 | 25.97857 | 127.71355 | 3559 ft | 217 kts | 44° |
| 2026-04-16 07:11 | 25.99075 | 127.72195 | 3407 ft | 202 kts | 12° |
| 2026-04-16 07:11 | 26.00417 | 127.72254 | 3190 ft | 192 kts | 345° |
| 2026-04-16 07:12 | 26.01611 | 127.71629 | 3039 ft | 192 kts | 321° |
| 2026-04-16 07:12 | 26.02466 | 127.70504 | 2876 ft | 190 kts | 297° |
| 2026-04-16 07:12 | 26.02979 | 127.69158 | 2725 ft | 187 kts | 291° |
| 2026-04-16 07:12 | 26.03434 | 127.67803 | 2575 ft | 187 kts | 291° |
| 2026-04-16 07:13 | 26.03888 | 127.66446 | 2450 ft | 187 kts | 291° |
| 2026-04-16 07:13 | 26.04384 | 127.65126 | 2321 ft | 188 kts | 305° |
| 2026-04-16 07:13 | 26.05438 | 127.64344 | 2161 ft | 184 kts | 347° |
| 2026-04-16 07:13 | 26.06681 | 127.64087 | 2013 ft | 177 kts | 351° |
| 2026-04-16 07:14 | 26.07862 | 127.63886 | 1899 ft | 166 kts | 353° |
| 2026-04-16 07:14 | 26.09003 | 127.63780 | 1738 ft | 165 kts | 356° |
| 2026-04-16 07:14 | 26.10127 | 127.63721 | 1506 ft | 159 kts | 358° |
| 2026-04-16 07:14 | 26.11226 | 127.63669 | 1301 ft | 157 kts | 358° |
| 2026-04-16 07:15 | 26.12291 | 127.63619 | 1093 ft | 154 kts | 357° |
| 2026-04-16 07:15 | 26.13367 | 127.63569 | 911 ft | 155 kts | 358° |
| 2026-04-16 07:15 | 26.14442 | 127.63516 | 708 ft | 153 kts | 358° |
| 2026-04-16 07:15 | 26.15501 | 127.63470 | 486 ft | 151 kts | 358° |
| 2026-04-16 07:16 | 26.16556 | 127.63427 | 285 ft | 151 kts | 357° |
| 2026-04-16 07:16 | 26.17601 | 127.63365 | 104 ft | 149 kts | 358° |
| 2026-04-16 07:16 | 26.18594 | 127.63324 | 17 ft | 137 kts | 359° |
| 2026-04-16 07:16 | 26.19350 | 127.63286 | 16 ft | 78 kts | 358° |
| 2026-04-16 07:17 | 26.19693 | 127.63270 | 18 ft | 32 kts | 357° |
| 2026-04-16 07:17 | 26.19894 | 127.63260 | 16 ft | 28 kts | 358° |
| 2026-04-16 07:17 | 26.20079 | 127.63251 | 17 ft | 26 kts | 358° |
| 2026-04-16 07:17 | 26.20244 | 127.63244 | 15 ft | 15 kts | 0° |
| 2026-04-16 07:18 | 26.20295 | 127.63330 | 15 ft | 15 kts | 86° |
| 2026-04-16 07:18 | 26.20299 | 127.63441 | 16 ft | 14 kts | 88° |
| 2026-04-16 07:18 | 26.20303 | 127.63549 | 16 ft | 15 kts | 88° |
| 2026-04-16 07:18 | 26.20308 | 127.63676 | 16 ft | 17 kts | 88° |
| 2026-04-16 07:19 | 26.20313 | 127.63804 | 16 ft | 16 kts | 88° |
| 2026-04-16 07:19 | 26.20317 | 127.63926 | 16 ft | 16 kts | 88° |
| 2026-04-16 07:19 | 26.20322 | 127.64044 | 16 ft | 15 kts | 87° |
| 2026-04-16 07:19 | 26.20326 | 127.64164 | 16 ft | 20 kts | 87° |
| 2026-04-16 07:20 | 26.20333 | 127.64328 | 16 ft | 21 kts | 87° |
| 2026-04-16 07:20 | 26.20340 | 127.64490 | 17 ft | 21 kts | 87° |
| 2026-04-16 07:20 | 26.20346 | 127.64647 | 16 ft | 20 kts | 88° |
| 2026-04-16 07:20 | 26.20357 | 127.64765 | 17 ft | 11 kts | 57° |
| 2026-04-16 07:21 | 26.20403 | 127.64819 | 21 ft | 7 kts | 48° |
| 2026-04-16 07:21 | 26.20426 | 127.64848 | 20 ft | 5 kts | 47° |
| 2026-04-16 07:21 | 26.20440 | 127.64864 | 20 ft | 2 kts | 46° |
| 2026-04-16 07:21 | 26.20448 | 127.64873 | 20 ft | 0 kts | 47° |